sensor_id;sensor_type;location;lat;lon;timestamp;pressure;altitude;pressure_sealevel;temperature;humidity
50302;BME280;36550;50.472;19.744;2023-08-06T00:00:06;96848.27;;;19.31;95.12
50302;BME280;36550;50.472;19.744;2023-08-06T00:02:50;96841.93;;;19.32;95.40
50302;BME280;36550;50.472;19.744;2023-08-06T00:05:34;96828.82;;;19.33;95.49
50302;BME280;36550;50.472;19.744;2023-08-06T00:08:18;96817.84;;;19.32;95.41
50302;BME280;36550;50.472;19.744;2023-08-06T00:11:02;96823.61;;;19.28;95.13
50302;BME280;36550;50.472;19.744;2023-08-06T00:13:46;96823.90;;;19.28;95.41
50302;BME280;36550;50.472;19.744;2023-08-06T00:16:30;96834.65;;;19.29;95.61
50302;BME280;36550;50.472;19.744;2023-08-06T00:19:13;96847.64;;;19.30;95.78
50302;BME280;36550;50.472;19.744;2023-08-06T00:21:58;96863.02;;;19.31;95.67
50302;BME280;36550;50.472;19.744;2023-08-06T00:24:42;96868.69;;;19.32;95.83
50302;BME280;36550;50.472;19.744;2023-08-06T00:27:26;96865.84;;;19.33;95.74
50302;BME280;36550;50.472;19.744;2023-08-06T00:30:10;96851.60;;;19.34;95.74
50302;BME280;36550;50.472;19.744;2023-08-06T00:32:55;96834.36;;;19.34;95.71
50302;BME280;36550;50.472;19.744;2023-08-06T00:35:39;96817.43;;;19.33;95.59
50302;BME280;36550;50.472;19.744;2023-08-06T00:38:23;96806.84;;;19.33;95.68
50302;BME280;36550;50.472;19.744;2023-08-06T00:41:08;96798.02;;;19.33;95.53
50302;BME280;36550;50.472;19.744;2023-08-06T00:43:52;96796.59;;;19.31;95.45
50302;BME280;36550;50.472;19.744;2023-08-06T00:46:36;96807.64;;;19.30;95.51
50302;BME280;36550;50.472;19.744;2023-08-06T00:49:20;96793.80;;;19.32;95.78
50302;BME280;36550;50.472;19.744;2023-08-06T00:52:06;96774.73;;;19.34;95.86
50302;BME280;36550;50.472;19.744;2023-08-06T00:54:51;96743.75;;;19.32;95.69
50302;BME280;36550;50.472;19.744;2023-08-06T00:57:35;96701.80;;;19.32;95.82
50302;BME280;36550;50.472;19.744;2023-08-06T01:00:20;96665.50;;;19.35;96.16
50302;BME280;36550;50.472;19.744;2023-08-06T01:03:04;96636.09;;;19.33;95.98
50302;BME280;36550;50.472;19.744;2023-08-06T01:05:48;96630.52;;;19.33;95.96
50302;BME280;36550;50.472;19.744;2023-08-06T01:08:49;96627.20;;;19.30;96.03
50302;BME280;36550;50.472;19.744;2023-08-06T01:11:47;96635.52;;;19.29;95.99
50302;BME280;36550;50.472;19.744;2023-08-06T01:14:57;96632.70;;;19.28;95.96
50302;BME280;36550;50.472;19.744;2023-08-06T01:17:45;96607.75;;;19.25;96.00
50302;BME280;36550;50.472;19.744;2023-08-06T01:20:30;96582.64;;;19.22;96.00
50302;BME280;36550;50.472;19.744;2023-08-06T01:23:14;96532.10;;;19.20;95.97
50302;BME280;36550;50.472;19.744;2023-08-06T01:26:13;96553.68;;;19.13;95.98
50302;BME280;36550;50.472;19.744;2023-08-06T01:32:01;96575.96;;;19.16;96.38
50302;BME280;36550;50.472;19.744;2023-08-06T01:34:47;96554.27;;;19.17;96.35
50302;BME280;36550;50.472;19.744;2023-08-06T01:37:32;96553.04;;;19.14;96.11
50302;BME280;36550;50.472;19.744;2023-08-06T01:40:16;96566.30;;;19.11;96.32
50302;BME280;36550;50.472;19.744;2023-08-06T01:43:01;96568.83;;;19.12;96.36
50302;BME280;36550;50.472;19.744;2023-08-06T01:45:45;96559.41;;;19.12;96.49
50302;BME280;36550;50.472;19.744;2023-08-06T01:48:29;96578.45;;;19.13;96.51
50302;BME280;36550;50.472;19.744;2023-08-06T01:51:13;96572.60;;;19.15;96.68
50302;BME280;36550;50.472;19.744;2023-08-06T01:53:57;96577.77;;;19.18;96.86
50302;BME280;36550;50.472;19.744;2023-08-06T01:56:41;96584.83;;;19.19;96.72
50302;BME280;36550;50.472;19.744;2023-08-06T01:59:25;96570.95;;;19.20;96.73
50302;BME280;36550;50.472;19.744;2023-08-06T02:02:09;96563.21;;;19.21;96.81
50302;BME280;36550;50.472;19.744;2023-08-06T02:04:54;96568.75;;;19.21;96.60
50302;BME280;36550;50.472;19.744;2023-08-06T02:07:38;96575.35;;;19.22;96.78
50302;BME280;36550;50.472;19.744;2023-08-06T02:10:22;96575.39;;;19.23;96.84
50302;BME280;36550;50.472;19.744;2023-08-06T02:13:06;96574.85;;;19.25;97.03
50302;BME280;36550;50.472;19.744;2023-08-06T02:15:51;96567.52;;;19.27;97.01
50302;BME280;36550;50.472;19.744;2023-08-06T02:18:35;96571.98;;;19.28;96.85
50302;BME280;36550;50.472;19.744;2023-08-06T02:21:19;96571.84;;;19.29;96.99
50302;BME280;36550;50.472;19.744;2023-08-06T02:24:03;96560.70;;;19.30;96.90
50302;BME280;36550;50.472;19.744;2023-08-06T02:26:47;96551.00;;;19.30;97.00
50302;BME280;36550;50.472;19.744;2023-08-06T02:29:34;96548.04;;;19.30;96.91
50302;BME280;36550;50.472;19.744;2023-08-06T02:32:18;96547.14;;;19.31;96.91
50302;BME280;36550;50.472;19.744;2023-08-06T02:35:03;96545.59;;;19.32;97.09
50302;BME280;36550;50.472;19.744;2023-08-06T02:37:46;96546.23;;;19.33;97.03
50302;BME280;36550;50.472;19.744;2023-08-06T02:40:31;96543.77;;;19.34;97.18
50302;BME280;36550;50.472;19.744;2023-08-06T02:43:15;96541.90;;;19.35;97.08
50302;BME280;36550;50.472;19.744;2023-08-06T02:46:00;96546.69;;;19.37;97.14
50302;BME280;36550;50.472;19.744;2023-08-06T02:48:44;96552.47;;;19.39;97.35
50302;BME280;36550;50.472;19.744;2023-08-06T02:51:29;96544.92;;;19.41;97.24
50302;BME280;36550;50.472;19.744;2023-08-06T02:54:13;96543.22;;;19.42;97.43
50302;BME280;36550;50.472;19.744;2023-08-06T02:56:56;96546.61;;;19.44;97.44
50302;BME280;36550;50.472;19.744;2023-08-06T02:59:40;96545.91;;;19.46;97.43
50302;BME280;36550;50.472;19.744;2023-08-06T03:02:24;96544.98;;;19.45;97.48
50302;BME280;36550;50.472;19.744;2023-08-06T03:05:09;96542.05;;;19.47;97.47
50302;BME280;36550;50.472;19.744;2023-08-06T03:07:52;96541.39;;;19.47;97.41
50302;BME280;36550;50.472;19.744;2023-08-06T03:10:36;96543.20;;;19.48;97.54
50302;BME280;36550;50.472;19.744;2023-08-06T03:13:20;96540.30;;;19.51;97.69
50302;BME280;36550;50.472;19.744;2023-08-06T03:16:04;96535.22;;;19.51;97.67
50302;BME280;36550;50.472;19.744;2023-08-06T03:18:49;96531.52;;;19.52;97.60
50302;BME280;36550;50.472;19.744;2023-08-06T03:21:32;96528.57;;;19.52;97.69
50302;BME280;36550;50.472;19.744;2023-08-06T03:24:16;96530.63;;;19.53;97.60
50302;BME280;36550;50.472;19.744;2023-08-06T03:27:01;96526.55;;;19.53;97.71
50302;BME280;36550;50.472;19.744;2023-08-06T03:29:49;96521.95;;;19.52;97.48
50302;BME280;36550;50.472;19.744;2023-08-06T03:32:34;96519.21;;;19.52;97.42
50302;BME280;36550;50.472;19.744;2023-08-06T03:35:18;96519.73;;;19.51;97.32
50302;BME280;36550;50.472;19.744;2023-08-06T03:38:02;96516.28;;;19.51;97.30
50302;BME280;36550;50.472;19.744;2023-08-06T03:40:46;96514.29;;;19.53;97.59
50302;BME280;36550;50.472;19.744;2023-08-06T03:43:31;96511.08;;;19.54;97.68
50302;BME280;36550;50.472;19.744;2023-08-06T03:46:15;96507.09;;;19.55;97.70
50302;BME280;36550;50.472;19.744;2023-08-06T03:49:00;96502.48;;;19.56;97.78
50302;BME280;36550;50.472;19.744;2023-08-06T03:51:44;96499.48;;;19.58;97.78
50302;BME280;36550;50.472;19.744;2023-08-06T03:54:29;96494.00;;;19.58;97.65
50302;BME280;36550;50.472;19.744;2023-08-06T03:57:14;96493.61;;;19.57;97.50
50302;BME280;36550;50.472;19.744;2023-08-06T03:59:58;96490.13;;;19.57;97.55
50302;BME280;36550;50.472;19.744;2023-08-06T04:02:42;96484.33;;;19.59;97.66
50302;BME280;36550;50.472;19.744;2023-08-06T04:05:26;96481.43;;;19.61;97.71
50302;BME280;36550;50.472;19.744;2023-08-06T04:08:10;96477.98;;;19.63;97.80
50302;BME280;36550;50.472;19.744;2023-08-06T04:10:54;96479.19;;;19.65;97.96
50302;BME280;36550;50.472;19.744;2023-08-06T04:13:42;96482.52;;;19.67;97.94
50302;BME280;36550;50.472;19.744;2023-08-06T04:16:26;96477.55;;;19.68;97.83
50302;BME280;36550;50.472;19.744;2023-08-06T04:19:10;96472.69;;;19.69;97.71
50302;BME280;36550;50.472;19.744;2023-08-06T04:21:54;96472.64;;;19.69;97.56
50302;BME280;36550;50.472;19.744;2023-08-06T04:24:39;96464.82;;;19.70;97.89
50302;BME280;36550;50.472;19.744;2023-08-06T04:27:23;96459.83;;;19.72;97.78
50302;BME280;36550;50.472;19.744;2023-08-06T04:30:07;96458.89;;;19.74;97.76
50302;BME280;36550;50.472;19.744;2023-08-06T04:32:51;96461.09;;;19.73;97.66
50302;BME280;36550;50.472;19.744;2023-08-06T04:35:36;96462.50;;;19.75;97.61
50302;BME280;36550;50.472;19.744;2023-08-06T04:38:20;96463.60;;;19.74;97.54
50302;BME280;36550;50.472;19.744;2023-08-06T04:41:04;96462.68;;;19.76;97.74
50302;BME280;36550;50.472;19.744;2023-08-06T04:43:48;96460.31;;;19.78;97.83
50302;BME280;36550;50.472;19.744;2023-08-06T04:46:32;96458.55;;;19.80;97.90
50302;BME280;36550;50.472;19.744;2023-08-06T04:49:17;96453.15;;;19.82;97.88
50302;BME280;36550;50.472;19.744;2023-08-06T04:52:02;96451.02;;;19.85;97.85
50302;BME280;36550;50.472;19.744;2023-08-06T04:54:45;96450.80;;;19.87;97.97
50302;BME280;36550;50.472;19.744;2023-08-06T04:57:30;96449.10;;;19.90;97.85
50302;BME280;36550;50.472;19.744;2023-08-06T05:00:14;96442.41;;;19.92;97.92
50302;BME280;36550;50.472;19.744;2023-08-06T05:02:59;96435.15;;;19.93;97.85
50302;BME280;36550;50.472;19.744;2023-08-06T05:05:45;96436.00;;;19.96;97.96
50302;BME280;36550;50.472;19.744;2023-08-06T05:08:30;96436.46;;;19.98;98.04
50302;BME280;36550;50.472;19.744;2023-08-06T05:11:14;96428.31;;;20.01;97.88
50302;BME280;36550;50.472;19.744;2023-08-06T05:13:58;96423.34;;;20.00;97.90
50302;BME280;36550;50.472;19.744;2023-08-06T05:16:42;96419.30;;;20.02;98.06
50302;BME280;36550;50.472;19.744;2023-08-06T05:19:26;96413.38;;;20.05;98.04
50302;BME280;36550;50.472;19.744;2023-08-06T05:22:10;96417.67;;;20.09;98.25
50302;BME280;36550;50.472;19.744;2023-08-06T05:24:54;96417.88;;;20.10;98.21
50302;BME280;36550;50.472;19.744;2023-08-06T05:27:39;96410.03;;;20.13;98.16
50302;BME280;36550;50.472;19.744;2023-08-06T05:30:23;96411.39;;;20.15;98.14
50302;BME280;36550;50.472;19.744;2023-08-06T05:33:07;96410.08;;;20.17;98.18
50302;BME280;36550;50.472;19.744;2023-08-06T05:35:51;96405.86;;;20.18;98.11
50302;BME280;36550;50.472;19.744;2023-08-06T05:38:35;96402.91;;;20.19;98.02
50302;BME280;36550;50.472;19.744;2023-08-06T05:41:19;96398.03;;;20.19;98.03
50302;BME280;36550;50.472;19.744;2023-08-06T05:44:04;96392.97;;;20.21;98.16
50302;BME280;36550;50.472;19.744;2023-08-06T05:46:49;96390.88;;;20.22;98.08
50302;BME280;36550;50.472;19.744;2023-08-06T05:49:33;96383.93;;;20.24;98.03
50302;BME280;36550;50.472;19.744;2023-08-06T05:52:17;96381.64;;;20.26;98.02
50302;BME280;36550;50.472;19.744;2023-08-06T05:55:01;96382.45;;;20.28;98.04
50302;BME280;36550;50.472;19.744;2023-08-06T05:57:45;96378.02;;;20.30;98.09
50302;BME280;36550;50.472;19.744;2023-08-06T06:00:29;96365.86;;;20.32;98.13
50302;BME280;36550;50.472;19.744;2023-08-06T06:03:13;96361.23;;;20.34;98.19
50302;BME280;36550;50.472;19.744;2023-08-06T06:05:59;96356.79;;;20.35;98.15
50302;BME280;36550;50.472;19.744;2023-08-06T06:08:45;96346.02;;;20.37;98.10
50302;BME280;36550;50.472;19.744;2023-08-06T06:11:29;96339.46;;;20.39;98.04
50302;BME280;36550;50.472;19.744;2023-08-06T06:14:13;96332.05;;;20.42;98.04
50302;BME280;36550;50.472;19.744;2023-08-06T06:16:56;96330.61;;;20.45;97.95
50302;BME280;36550;50.472;19.744;2023-08-06T06:19:40;96327.02;;;20.49;98.02
50302;BME280;36550;50.472;19.744;2023-08-06T06:22:24;96322.59;;;20.52;98.01
50302;BME280;36550;50.472;19.744;2023-08-06T06:25:09;96314.81;;;20.54;97.98
50302;BME280;36550;50.472;19.744;2023-08-06T06:27:54;96310.59;;;20.56;97.86
50302;BME280;36550;50.472;19.744;2023-08-06T06:30:38;96304.70;;;20.58;97.70
50302;BME280;36550;50.472;19.744;2023-08-06T06:33:22;96298.38;;;20.58;97.78
50302;BME280;36550;50.472;19.744;2023-08-06T06:36:05;96299.79;;;20.59;97.69
50302;BME280;36550;50.472;19.744;2023-08-06T06:38:51;96293.34;;;20.60;97.68
50302;BME280;36550;50.472;19.744;2023-08-06T06:41:35;96289.52;;;20.62;97.63
50302;BME280;36550;50.472;19.744;2023-08-06T06:44:20;96288.91;;;20.62;97.45
50302;BME280;36550;50.472;19.744;2023-08-06T06:47:05;96284.02;;;20.62;97.23
50302;BME280;36550;50.472;19.744;2023-08-06T06:49:49;96275.86;;;20.61;97.24
50302;BME280;36550;50.472;19.744;2023-08-06T06:52:33;96275.27;;;20.62;97.20
50302;BME280;36550;50.472;19.744;2023-08-06T06:55:17;96276.26;;;20.61;97.14
50302;BME280;36550;50.472;19.744;2023-08-06T06:58:01;96273.88;;;20.61;97.08
50302;BME280;36550;50.472;19.744;2023-08-06T07:00:46;96276.23;;;20.58;96.90
50302;BME280;36550;50.472;19.744;2023-08-06T07:03:31;96279.79;;;20.57;96.97
50302;BME280;36550;50.472;19.744;2023-08-06T07:06:15;96271.96;;;20.55;96.96
50302;BME280;36550;50.472;19.744;2023-08-06T07:09:00;96268.67;;;20.54;96.97
50302;BME280;36550;50.472;19.744;2023-08-06T07:11:44;96265.17;;;20.55;96.97
50302;BME280;36550;50.472;19.744;2023-08-06T07:14:28;96263.35;;;20.55;96.88
50302;BME280;36550;50.472;19.744;2023-08-06T07:17:12;96266.42;;;20.59;97.05
50302;BME280;36550;50.472;19.744;2023-08-06T07:19:56;96265.98;;;20.62;97.18
50302;BME280;36550;50.472;19.744;2023-08-06T07:22:40;96270.16;;;20.64;97.13
50302;BME280;36550;50.472;19.744;2023-08-06T07:25:24;96274.08;;;20.65;97.06
50302;BME280;36550;50.472;19.744;2023-08-06T07:28:10;96271.48;;;20.65;97.02
50302;BME280;36550;50.472;19.744;2023-08-06T07:30:54;96268.73;;;20.65;97.07
50302;BME280;36550;50.472;19.744;2023-08-06T07:33:38;96260.84;;;20.63;96.68
50302;BME280;36550;50.472;19.744;2023-08-06T07:36:22;96255.18;;;20.60;96.62
50302;BME280;36550;50.472;19.744;2023-08-06T07:39:06;96246.30;;;20.58;96.61
50302;BME280;36550;50.472;19.744;2023-08-06T07:41:51;96243.52;;;20.59;96.80
50302;BME280;36550;50.472;19.744;2023-08-06T07:44:35;96237.12;;;20.65;96.94
50302;BME280;36550;50.472;19.744;2023-08-06T07:47:19;96234.88;;;20.69;97.13
50302;BME280;36550;50.472;19.744;2023-08-06T07:50:04;96235.20;;;20.73;97.13
50302;BME280;36550;50.472;19.744;2023-08-06T07:52:48;96229.33;;;20.79;97.18
50302;BME280;36550;50.472;19.744;2023-08-06T07:55:32;96226.08;;;20.87;97.39
50302;BME280;36550;50.472;19.744;2023-08-06T07:58:16;96228.39;;;20.91;97.28
50302;BME280;36550;50.472;19.744;2023-08-06T08:01:00;96223.89;;;20.94;97.14
50302;BME280;36550;50.472;19.744;2023-08-06T08:03:46;96217.45;;;20.96;97.05
50302;BME280;36550;50.472;19.744;2023-08-06T08:06:30;96222.67;;;20.97;97.07
50302;BME280;36550;50.472;19.744;2023-08-06T08:09:14;96221.61;;;20.98;96.86
50302;BME280;36550;50.472;19.744;2023-08-06T08:11:58;96220.46;;;20.98;96.80
50302;BME280;36550;50.472;19.744;2023-08-06T08:14:44;96222.56;;;21.00;96.74
50302;BME280;36550;50.472;19.744;2023-08-06T08:17:29;96231.30;;;20.99;96.63
50302;BME280;36550;50.472;19.744;2023-08-06T08:20:13;96227.49;;;20.99;96.82
50302;BME280;36550;50.472;19.744;2023-08-06T08:22:58;96227.57;;;21.02;96.88
50302;BME280;36550;50.472;19.744;2023-08-06T08:25:43;96234.58;;;21.05;97.01
50302;BME280;36550;50.472;19.744;2023-08-06T08:28:27;96231.71;;;21.06;96.97
50302;BME280;36550;50.472;19.744;2023-08-06T08:31:11;96237.48;;;21.06;96.93
50302;BME280;36550;50.472;19.744;2023-08-06T08:33:56;96242.67;;;21.03;96.68
50302;BME280;36550;50.472;19.744;2023-08-06T08:36:40;96239.81;;;20.98;96.46
50302;BME280;36550;50.472;19.744;2023-08-06T08:39:24;96246.42;;;20.93;96.40
50302;BME280;36550;50.472;19.744;2023-08-06T08:42:09;96257.98;;;20.89;96.43
50302;BME280;36550;50.472;19.744;2023-08-06T08:44:55;96253.95;;;20.87;96.16
50302;BME280;36550;50.472;19.744;2023-08-06T08:47:42;96250.50;;;20.80;95.15
50302;BME280;36550;50.472;19.744;2023-08-06T08:50:30;96244.48;;;20.76;95.33
50302;BME280;36550;50.472;19.744;2023-08-06T08:53:16;96245.92;;;20.82;95.61
50302;BME280;36550;50.472;19.744;2023-08-06T08:56:01;96243.12;;;20.96;95.81
50302;BME280;36550;50.472;19.744;2023-08-06T08:58:45;96238.11;;;21.06;95.66
50302;BME280;36550;50.472;19.744;2023-08-06T09:01:30;96239.73;;;21.14;95.59
50302;BME280;36550;50.472;19.744;2023-08-06T09:04:14;96238.61;;;21.15;95.04
50302;BME280;36550;50.472;19.744;2023-08-06T09:06:59;96243.45;;;21.16;94.87
50302;BME280;36550;50.472;19.744;2023-08-06T09:09:43;96243.39;;;21.18;94.46
50302;BME280;36550;50.472;19.744;2023-08-06T09:12:28;96247.54;;;21.19;94.42
50302;BME280;36550;50.472;19.744;2023-08-06T09:15:12;96251.17;;;21.21;94.21
50302;BME280;36550;50.472;19.744;2023-08-06T09:17:57;96248.30;;;21.22;93.96
50302;BME280;36550;50.472;19.744;2023-08-06T09:20:41;96246.91;;;21.18;93.58
50302;BME280;36550;50.472;19.744;2023-08-06T09:23:28;96246.34;;;21.13;93.39
50302;BME280;36550;50.472;19.744;2023-08-06T09:26:14;96244.85;;;21.11;93.27
50302;BME280;36550;50.472;19.744;2023-08-06T09:28:59;96254.33;;;21.06;93.06
50302;BME280;36550;50.472;19.744;2023-08-06T09:31:48;96261.17;;;21.02;92.95
50302;BME280;36550;50.472;19.744;2023-08-06T09:34:33;96256.12;;;20.97;92.81
50302;BME280;36550;50.472;19.744;2023-08-06T09:37:17;96254.58;;;20.91;92.54
50302;BME280;36550;50.472;19.744;2023-08-06T09:40:01;96250.97;;;20.86;92.43
50302;BME280;36550;50.472;19.744;2023-08-06T09:42:45;96251.87;;;20.79;92.08
50302;BME280;36550;50.472;19.744;2023-08-06T09:45:32;96258.40;;;20.72;92.16
50302;BME280;36550;50.472;19.744;2023-08-06T09:48:16;96268.25;;;20.67;92.12
50302;BME280;36550;50.472;19.744;2023-08-06T09:51:02;96272.42;;;20.63;91.93
50302;BME280;36550;50.472;19.744;2023-08-06T09:53:48;96272.80;;;20.58;91.82
50302;BME280;36550;50.472;19.744;2023-08-06T09:56:33;96270.02;;;20.50;91.30
50302;BME280;36550;50.472;19.744;2023-08-06T09:59:23;96261.98;;;20.46;91.20
50302;BME280;36550;50.472;19.744;2023-08-06T10:02:12;96265.31;;;20.42;91.42
50302;BME280;36550;50.472;19.744;2023-08-06T10:04:58;96266.17;;;20.43;91.64
50302;BME280;36550;50.472;19.744;2023-08-06T10:07:43;96268.98;;;20.40;91.28
50302;BME280;36550;50.472;19.744;2023-08-06T10:10:28;96266.86;;;20.34;90.74
50302;BME280;36550;50.472;19.744;2023-08-06T10:13:13;96262.93;;;20.27;90.90
50302;BME280;36550;50.472;19.744;2023-08-06T10:15:58;96266.18;;;20.32;91.38
50302;BME280;36550;50.472;19.744;2023-08-06T10:18:42;96267.58;;;20.39;91.48
50302;BME280;36550;50.472;19.744;2023-08-06T10:21:27;96276.37;;;20.43;91.43
50302;BME280;36550;50.472;19.744;2023-08-06T10:24:13;96267.01;;;20.49;91.46
50302;BME280;36550;50.472;19.744;2023-08-06T10:26:58;96253.41;;;20.53;91.26
50302;BME280;36550;50.472;19.744;2023-08-06T10:29:43;96262.87;;;20.54;90.83
50302;BME280;36550;50.472;19.744;2023-08-06T10:33:00;96265.83;;;20.53;90.77
50302;BME280;36550;50.472;19.744;2023-08-06T10:35:46;96263.48;;;20.53;90.80
50302;BME280;36550;50.472;19.744;2023-08-06T10:38:33;96254.92;;;20.56;90.59
50302;BME280;36550;50.472;19.744;2023-08-06T10:41:28;96260.35;;;20.62;90.54
50302;BME280;36550;50.472;19.744;2023-08-06T10:44:13;96275.84;;;20.63;90.58
50302;BME280;36550;50.472;19.744;2023-08-06T10:47:27;96279.20;;;20.64;90.27
50302;BME280;36550;50.472;19.744;2023-08-06T10:50:16;96277.00;;;20.61;90.04
50302;BME280;36550;50.472;19.744;2023-08-06T10:53:05;96274.28;;;20.59;89.99
50302;BME280;36550;50.472;19.744;2023-08-06T10:55:52;96279.25;;;20.57;89.77
50302;BME280;36550;50.472;19.744;2023-08-06T10:58:36;96275.49;;;20.56;89.57
50302;BME280;36550;50.472;19.744;2023-08-06T11:01:21;96275.91;;;20.52;89.30
50302;BME280;36550;50.472;19.744;2023-08-06T11:04:06;96270.36;;;20.49;89.15
50302;BME280;36550;50.472;19.744;2023-08-06T11:06:53;96260.80;;;20.42;88.86
50302;BME280;36550;50.472;19.744;2023-08-06T11:09:37;96257.66;;;20.32;88.57
50302;BME280;36550;50.472;19.744;2023-08-06T11:12:22;96250.41;;;20.22;88.33
50302;BME280;36550;50.472;19.744;2023-08-06T11:15:06;96246.34;;;20.15;88.20
50302;BME280;36550;50.472;19.744;2023-08-06T11:17:51;96250.02;;;20.08;88.24
50302;BME280;36550;50.472;19.744;2023-08-06T11:20:36;96261.38;;;20.03;88.13
50302;BME280;36550;50.472;19.744;2023-08-06T11:23:21;96269.59;;;19.98;88.22
50302;BME280;36550;50.472;19.744;2023-08-06T11:26:05;96269.27;;;19.94;88.52
50302;BME280;36550;50.472;19.744;2023-08-06T11:28:50;96266.41;;;19.90;88.33
50302;BME280;36550;50.472;19.744;2023-08-06T11:31:36;96256.14;;;19.87;88.19
50302;BME280;36550;50.472;19.744;2023-08-06T11:34:20;96255.91;;;19.90;88.37
50302;BME280;36550;50.472;19.744;2023-08-06T11:37:05;96255.67;;;19.92;88.39
50302;BME280;36550;50.472;19.744;2023-08-06T11:39:49;96250.90;;;19.90;87.97
50302;BME280;36550;50.472;19.744;2023-08-06T11:42:33;96262.46;;;19.90;88.22
50302;BME280;36550;50.472;19.744;2023-08-06T11:45:24;96268.16;;;19.90;88.15
50302;BME280;36550;50.472;19.744;2023-08-06T11:48:09;96271.16;;;19.88;88.26
50302;BME280;36550;50.472;19.744;2023-08-06T11:50:56;96279.00;;;19.86;88.14
50302;BME280;36550;50.472;19.744;2023-08-06T11:53:48;96275.20;;;19.86;88.04
50302;BME280;36550;50.472;19.744;2023-08-06T11:56:32;96275.14;;;19.86;88.05
50302;BME280;36550;50.472;19.744;2023-08-06T11:59:16;96272.09;;;19.89;88.15
50302;BME280;36550;50.472;19.744;2023-08-06T12:02:05;96267.93;;;19.93;88.18
50302;BME280;36550;50.472;19.744;2023-08-06T12:07:59;96269.98;;;19.89;87.68
50302;BME280;36550;50.472;19.744;2023-08-06T12:10:43;96270.59;;;19.87;87.53
50302;BME280;36550;50.472;19.744;2023-08-06T12:13:28;96274.81;;;19.83;87.26
50302;BME280;36550;50.472;19.744;2023-08-06T12:16:12;96281.64;;;19.79;87.29
50302;BME280;36550;50.472;19.744;2023-08-06T12:18:57;96291.22;;;19.74;87.13
50302;BME280;36550;50.472;19.744;2023-08-06T12:21:41;96297.08;;;19.67;86.92
50302;BME280;36550;50.472;19.744;2023-08-06T12:24:25;96301.59;;;19.58;86.81
50302;BME280;36550;50.472;19.744;2023-08-06T12:27:10;96316.17;;;19.48;86.64
50302;BME280;36550;50.472;19.744;2023-08-06T12:29:54;96324.49;;;19.39;86.71
50302;BME280;36550;50.472;19.744;2023-08-06T12:32:39;96331.08;;;19.33;86.62
50302;BME280;36550;50.472;19.744;2023-08-06T12:35:23;96333.14;;;19.23;86.57
50302;BME280;36550;50.472;19.744;2023-08-06T12:38:09;96340.02;;;19.20;86.71
50302;BME280;36550;50.472;19.744;2023-08-06T12:40:53;96345.42;;;19.15;86.46
50302;BME280;36550;50.472;19.744;2023-08-06T12:43:38;96352.38;;;19.03;86.20
50302;BME280;36550;50.472;19.744;2023-08-06T12:46:21;96359.14;;;18.96;86.41
50302;BME280;36550;50.472;19.744;2023-08-06T12:49:05;96371.10;;;18.90;86.46
50302;BME280;36550;50.472;19.744;2023-08-06T12:51:50;96373.27;;;18.85;86.30
50302;BME280;36550;50.472;19.744;2023-08-06T12:54:34;96378.91;;;18.77;86.40
50302;BME280;36550;50.472;19.744;2023-08-06T12:57:20;96379.71;;;18.72;86.46
50302;BME280;36550;50.472;19.744;2023-08-06T13:00:05;96385.41;;;18.67;86.41
50302;BME280;36550;50.472;19.744;2023-08-06T13:02:49;96389.86;;;18.62;86.48
50302;BME280;36550;50.472;19.744;2023-08-06T13:05:33;96385.89;;;18.55;86.45
50302;BME280;36550;50.472;19.744;2023-08-06T13:08:17;96387.53;;;18.50;86.30
50302;BME280;36550;50.472;19.744;2023-08-06T13:11:01;96381.13;;;18.42;86.11
50302;BME280;36550;50.472;19.744;2023-08-06T13:13:46;96380.64;;;18.37;86.17
50302;BME280;36550;50.472;19.744;2023-08-06T13:16:30;96382.55;;;18.36;86.28
50302;BME280;36550;50.472;19.744;2023-08-06T13:19:14;96385.08;;;18.35;86.30
50302;BME280;36550;50.472;19.744;2023-08-06T13:22:00;96383.66;;;18.31;86.24
50302;BME280;36550;50.472;19.744;2023-08-06T13:24:46;96385.42;;;18.29;86.10
50302;BME280;36550;50.472;19.744;2023-08-06T13:27:30;96387.50;;;18.25;86.10
50302;BME280;36550;50.472;19.744;2023-08-06T13:30:15;96386.33;;;18.24;86.03
50302;BME280;36550;50.472;19.744;2023-08-06T13:33:01;96388.95;;;18.22;86.00
50302;BME280;36550;50.472;19.744;2023-08-06T13:35:48;96393.73;;;18.26;86.32
50302;BME280;36550;50.472;19.744;2023-08-06T13:38:33;96395.80;;;18.31;86.38
50302;BME280;36550;50.472;19.744;2023-08-06T13:41:17;96403.41;;;18.34;86.49
50302;BME280;36550;50.472;19.744;2023-08-06T13:44:02;96415.18;;;18.36;86.51
50302;BME280;36550;50.472;19.744;2023-08-06T13:46:46;96426.90;;;18.35;86.40
50302;BME280;36550;50.472;19.744;2023-08-06T13:49:31;96434.38;;;18.36;86.39
50302;BME280;36550;50.472;19.744;2023-08-06T13:52:15;96435.50;;;18.37;86.44
50302;BME280;36550;50.472;19.744;2023-08-06T13:55:00;96435.08;;;18.39;86.50
50302;BME280;36550;50.472;19.744;2023-08-06T13:57:44;96445.14;;;18.39;86.61
50302;BME280;36550;50.472;19.744;2023-08-06T14:00:28;96451.70;;;18.40;86.43
50302;BME280;36550;50.472;19.744;2023-08-06T14:03:12;96457.45;;;18.41;86.34
50302;BME280;36550;50.472;19.744;2023-08-06T14:05:56;96454.49;;;18.46;86.45
50302;BME280;36550;50.472;19.744;2023-08-06T14:08:40;96452.16;;;18.49;86.32
50302;BME280;36550;50.472;19.744;2023-08-06T14:11:24;96462.43;;;18.52;86.44
50302;BME280;36550;50.472;19.744;2023-08-06T14:14:08;96472.86;;;18.54;86.50
50302;BME280;36550;50.472;19.744;2023-08-06T14:16:53;96473.80;;;18.57;86.46
50302;BME280;36550;50.472;19.744;2023-08-06T14:19:38;96471.36;;;18.59;86.39
50302;BME280;36550;50.472;19.744;2023-08-06T14:22:22;96466.50;;;18.63;86.39
50302;BME280;36550;50.472;19.744;2023-08-06T14:25:07;96461.69;;;18.64;86.18
50302;BME280;36550;50.472;19.744;2023-08-06T14:27:51;96450.19;;;18.59;85.79